createdAt,value
2018-07-20T00:01:51.119Z,22.10
2018-07-20T00:04:18.319Z,22.04
2018-07-20T00:06:45.367Z,21.99
2018-07-20T00:09:12.733Z,21.92
2018-07-20T00:11:39.748Z,21.88
2018-07-20T00:14:06.774Z,21.84
2018-07-20T00:16:34.137Z,21.80
2018-07-20T00:19:01.175Z,21.76
2018-07-20T00:21:28.201Z,21.73
2018-07-20T00:23:55.656Z,21.70
2018-07-20T00:26:22.673Z,21.66
2018-07-20T00:28:49.738Z,21.62
2018-07-20T00:31:17.073Z,21.58
2018-07-20T00:33:44.086Z,21.54
2018-07-20T00:36:11.100Z,21.51
2018-07-20T00:38:38.550Z,21.37
2018-07-20T00:41:05.593Z,21.42
2018-07-20T00:43:32.592Z,21.29
2018-07-20T00:46:00.008Z,21.35
2018-07-20T00:48:27.052Z,21.32
2018-07-20T00:50:54.095Z,21.27
2018-07-20T00:53:21.466Z,21.25
2018-07-20T00:55:48.440Z,21.22
2018-07-20T00:58:15.447Z,21.20
2018-07-20T01:00:42.687Z,21.18
2018-07-20T01:03:09.810Z,21.15
2018-07-20T01:05:37.029Z,21.11
2018-07-20T01:08:04.386Z,21.09
2018-07-20T01:10:31.371Z,21.06
2018-07-20T01:12:58.614Z,21.04
2018-07-20T01:15:26.093Z,21.02
2018-07-20T01:17:53.187Z,20.99
2018-07-20T01:20:20.249Z,20.87
2018-07-20T01:22:47.622Z,20.92
2018-07-20T01:25:14.713Z,20.89
2018-07-20T01:27:41.698Z,20.85
2018-07-20T01:30:09.272Z,20.83
2018-07-20T01:32:36.321Z,20.80
2018-07-20T01:35:03.349Z,20.70
2018-07-20T01:37:30.528Z,20.75
2018-07-20T01:39:57.642Z,20.72
2018-07-20T01:42:24.624Z,20.69
2018-07-20T01:44:52.086Z,20.65
2018-07-20T01:47:19.157Z,20.63
2018-07-20T01:49:46.174Z,20.60
2018-07-20T01:52:13.607Z,20.58
2018-07-20T01:54:40.695Z,20.56
2018-07-20T01:57:07.668Z,20.53
2018-07-20T01:59:34.978Z,20.50
2018-07-20T02:02:02.088Z,20.46
2018-07-20T02:04:29.104Z,20.47
2018-07-20T02:06:56.924Z,20.46
2018-07-20T02:09:23.940Z,20.45
2018-07-20T02:11:50.972Z,20.46
2018-07-20T02:14:18.388Z,20.46
2018-07-20T02:16:45.354Z,20.46
2018-07-20T02:19:12.399Z,20.46
2018-07-20T02:21:39.948Z,20.46
2018-07-20T02:24:07.588Z,20.47
2018-07-20T02:26:34.657Z,20.48
2018-07-20T02:29:02.152Z,20.50
2018-07-20T02:31:29.174Z,20.51
2018-07-20T02:33:56.821Z,20.53
2018-07-20T02:36:24.800Z,20.56
2018-07-20T02:38:52.383Z,20.58
2018-07-20T02:41:19.458Z,20.60
2018-07-20T02:43:47.023Z,20.65
2018-07-20T02:46:13.995Z,20.68
2018-07-20T02:48:40.985Z,20.63
2018-07-20T02:51:08.412Z,20.74
2018-07-20T02:53:35.412Z,20.77
2018-07-20T02:56:02.424Z,20.82
2018-07-20T02:58:29.896Z,20.86
2018-07-20T03:00:56.862Z,20.89
2018-07-20T03:03:23.897Z,20.92
2018-07-20T03:05:51.311Z,20.87
2018-07-20T03:08:18.413Z,20.99
2018-07-20T03:10:45.408Z,21.03
2018-07-20T03:13:12.885Z,21.06
2018-07-20T03:15:39.951Z,21.10
2018-07-20T03:18:07.048Z,21.15
2018-07-20T03:20:34.697Z,21.18
2018-07-20T03:23:01.752Z,21.21
2018-07-20T03:25:28.790Z,21.24
2018-07-20T03:27:56.137Z,21.28
2018-07-20T03:30:23.287Z,21.31
2018-07-20T03:32:50.317Z,21.35
2018-07-20T03:35:17.645Z,21.37
2018-07-20T03:37:44.658Z,21.40
2018-07-20T03:40:11.753Z,21.43
2018-07-20T03:42:39.260Z,21.46
2018-07-20T03:48:04.537Z,21.51
2018-07-20T03:50:31.655Z,21.55
2018-07-20T03:52:58.696Z,21.59
2018-07-20T03:55:26.199Z,21.61
2018-07-20T03:57:53.716Z,21.65
2018-07-20T04:00:20.798Z,21.68
2018-07-20T04:02:48.068Z,21.71
2018-07-20T04:05:15.198Z,21.74
2018-07-20T04:07:42.269Z,21.79
2018-07-20T04:10:09.904Z,21.82
2018-07-20T04:12:36.949Z,21.86
2018-07-20T04:15:03.967Z,21.89
2018-07-20T04:17:40.794Z,21.93
2018-07-20T04:20:07.870Z,21.98
2018-07-20T04:22:35.155Z,22.02
2018-07-20T04:25:02.291Z,22.06
2018-07-20T04:27:29.272Z,22.11
2018-07-20T04:29:56.474Z,22.16
2018-07-20T04:32:23.745Z,22.21
2018-07-20T04:34:50.767Z,22.27
2018-07-20T04:37:17.916Z,22.31
2018-07-20T04:39:45.263Z,22.36
2018-07-20T04:42:12.297Z,22.41
2018-07-20T04:44:39.498Z,22.46
2018-07-20T04:47:06.761Z,22.51
2018-07-20T04:49:34.021Z,22.57
2018-07-20T04:52:01.245Z,22.63
2018-07-20T04:54:28.489Z,22.68
2018-07-20T04:56:55.530Z,22.75
2018-07-20T04:59:23.132Z,22.82
2018-07-20T05:01:50.415Z,22.88
2018-07-20T05:04:17.438Z,22.94
2018-07-20T05:06:44.701Z,23.00
2018-07-20T05:09:11.865Z,23.08
2018-07-20T05:11:39.407Z,23.13
2018-07-20T05:14:06.679Z,23.20
2018-07-20T05:16:33.967Z,23.20
2018-07-20T05:19:00.969Z,23.33
2018-07-20T05:21:28.011Z,23.39
2018-07-20T05:23:55.692Z,23.44
2018-07-20T05:26:22.697Z,23.49
2018-07-20T05:28:49.845Z,23.54
2018-07-20T05:31:17.104Z,23.58
2018-07-20T05:33:44.184Z,23.63
2018-07-20T05:36:11.800Z,23.67
2018-07-20T05:38:39.051Z,23.69
2018-07-20T05:41:06.112Z,23.74
2018-07-20T05:43:33.341Z,23.76
2018-07-20T05:46:00.517Z,23.78
2018-07-20T05:48:27.513Z,23.81
2018-07-20T05:50:54.641Z,23.85
2018-07-20T05:53:21.778Z,23.89
2018-07-20T05:55:48.752Z,23.93
2018-07-20T05:58:15.987Z,23.99
2018-07-20T06:00:43.430Z,24.04
2018-07-20T06:03:10.488Z,24.10
2018-07-20T06:05:37.795Z,24.17
2018-07-20T06:08:05.034Z,24.23
2018-07-20T06:10:32.080Z,24.29
2018-07-20T06:12:59.616Z,24.34
2018-07-20T06:15:26.846Z,24.40
2018-07-20T06:17:53.833Z,24.46
2018-07-20T06:20:21.065Z,24.52
2018-07-20T06:22:48.303Z,24.59
2018-07-20T06:25:15.333Z,24.64
2018-07-20T06:27:42.501Z,24.71
2018-07-20T06:30:09.614Z,24.77
2018-07-20T06:32:36.907Z,24.81
2018-07-20T06:35:04.022Z,24.88
2018-07-20T06:37:31.234Z,24.93
2018-07-20T06:39:58.867Z,24.99
2018-07-20T06:42:26.111Z,25.06
2018-07-20T06:44:53.356Z,25.12
2018-07-20T06:47:20.412Z,25.19
2018-07-20T06:49:47.562Z,25.24
2018-07-20T06:52:14.745Z,25.30
2018-07-20T06:54:41.669Z,25.37
2018-07-20T06:57:09.007Z,25.44
2018-07-20T06:59:36.245Z,25.51
2018-07-20T07:02:03.321Z,25.56
2018-07-20T07:04:30.496Z,25.60
2018-07-20T07:06:57.733Z,25.67
2018-07-20T07:09:24.842Z,25.72
2018-07-20T07:12:22.768Z,25.77
2018-07-20T07:14:49.946Z,25.83
2018-07-20T07:17:17.063Z,25.88
2018-07-20T07:19:44.398Z,25.94
2018-07-20T07:22:11.413Z,26.00
2018-07-20T07:24:38.447Z,26.03
2018-07-20T07:27:05.817Z,26.15
2018-07-20T07:29:32.837Z,26.20
2018-07-20T07:31:59.935Z,26.25
2018-07-20T07:34:27.341Z,26.28
2018-07-20T07:36:54.358Z,26.33
2018-07-20T07:39:21.397Z,26.36
2018-07-20T07:41:48.854Z,26.41
2018-07-20T07:44:15.833Z,26.47
2018-07-20T07:46:42.823Z,26.52
2018-07-20T07:49:10.191Z,26.57
2018-07-20T07:51:37.282Z,26.64
2018-07-20T07:54:04.522Z,26.67
2018-07-20T07:56:31.864Z,26.69
2018-07-20T07:58:59.751Z,26.69
2018-07-20T08:01:26.774Z,26.72
2018-07-20T08:03:54.040Z,26.74
2018-07-20T08:06:21.267Z,26.77
2018-07-20T08:08:48.244Z,26.80
2018-07-20T08:11:15.392Z,26.84
2018-07-20T08:13:42.796Z,26.88
2018-07-20T08:16:10.081Z,26.94
2018-07-20T08:18:37.232Z,26.99
2018-07-20T08:21:04.495Z,27.03
2018-07-20T08:23:31.479Z,27.08
2018-07-20T08:26:05.295Z,27.13
2018-07-20T08:28:32.645Z,27.16
2018-07-20T08:30:59.880Z,27.21
2018-07-20T08:33:27.167Z,27.26
2018-07-20T08:35:54.170Z,27.32
2018-07-20T08:38:21.500Z,27.38
2018-07-20T08:40:48.708Z,27.41
2018-07-20T08:43:15.726Z,27.45
2018-07-20T08:45:42.810Z,27.51
2018-07-20T08:48:10.095Z,27.56
2018-07-20T08:50:37.254Z,27.61
2018-07-20T08:53:04.534Z,27.65
2018-07-20T08:55:31.830Z,27.70
2018-07-20T08:57:58.891Z,27.74
2018-07-20T09:00:26.035Z,27.79
2018-07-20T09:02:53.299Z,27.82
2018-07-20T09:05:20.313Z,27.88
2018-07-20T09:07:47.419Z,27.94
2018-07-20T09:10:14.538Z,28.00
2018-07-20T09:12:41.499Z,28.08
2018-07-20T09:15:08.739Z,28.15
2018-07-20T09:17:36.062Z,28.21
2018-07-20T09:20:03.106Z,28.28
2018-07-20T09:22:30.266Z,28.35
2018-07-20T09:24:57.459Z,28.41
2018-07-20T09:27:24.461Z,28.46
2018-07-20T09:29:51.724Z,28.52
2018-07-20T09:32:18.915Z,28.58
2018-07-20T09:34:45.926Z,28.64
2018-07-20T09:37:13.071Z,28.73
2018-07-20T09:39:40.352Z,28.81
2018-07-20T09:42:07.417Z,28.86
2018-07-20T09:44:34.638Z,28.90
2018-07-20T09:47:01.789Z,28.96
2018-07-20T09:49:28.768Z,29.05
2018-07-20T09:51:55.949Z,29.16
2018-07-20T09:54:23.139Z,29.31
2018-07-20T09:56:50.196Z,29.50
2018-07-20T09:59:17.354Z,29.71
2018-07-20T10:01:45.031Z,29.95
2018-07-20T10:04:12.042Z,30.19
2018-07-20T10:06:39.318Z,30.42
2018-07-20T10:09:08.033Z,30.66
2018-07-20T10:11:35.191Z,30.88
2018-07-20T10:14:02.421Z,31.08
2018-07-20T10:16:29.678Z,31.27
2018-07-20T10:18:56.961Z,31.44
2018-07-20T10:21:24.243Z,31.60
2018-07-20T10:23:51.483Z,31.76
2018-07-20T10:26:18.484Z,31.94
2018-07-20T10:28:45.669Z,32.08
2018-07-20T10:31:13.769Z,32.22
2018-07-20T10:33:40.831Z,32.37
2018-07-20T10:36:08.120Z,32.50
2018-07-20T10:38:35.493Z,32.62
2018-07-20T10:41:02.460Z,32.76
2018-07-20T10:46:27.496Z,33.02
2018-07-20T10:48:54.732Z,33.13
2018-07-20T10:51:22.383Z,33.22
2018-07-20T10:53:50.197Z,33.36
2018-07-20T10:56:18.174Z,33.49
2018-07-20T10:58:45.788Z,33.56
2018-07-20T11:01:13.682Z,33.64
2018-07-20T11:03:41.495Z,33.64
2018-07-20T11:06:09.095Z,33.66
2018-07-20T11:08:36.862Z,33.71
2018-07-20T11:11:04.752Z,33.75
2018-07-20T11:13:32.396Z,33.80
2018-07-20T11:16:01.284Z,33.85
2018-07-20T11:18:29.070Z,33.87
2018-07-20T11:20:57.253Z,33.87
2018-07-20T11:23:25.113Z,33.91
2018-07-20T11:25:52.986Z,33.99
2018-07-20T11:28:20.649Z,34.09
2018-07-20T11:30:48.459Z,34.20
2018-07-20T11:33:16.406Z,34.32
2018-07-20T11:35:44.143Z,34.45
2018-07-20T11:38:12.109Z,34.47
2018-07-20T11:40:39.896Z,34.41
2018-07-20T11:43:07.689Z,34.42
2018-07-20T11:45:35.585Z,34.45
2018-07-20T11:48:03.461Z,34.49
2018-07-20T11:50:31.220Z,34.51
2018-07-20T11:52:58.980Z,34.53
2018-07-20T11:55:26.910Z,34.53
2018-07-20T11:57:54.607Z,34.57
2018-07-20T12:00:22.475Z,34.65
2018-07-20T12:02:50.171Z,34.69
2018-07-20T12:05:17.837Z,34.68
2018-07-20T12:07:45.604Z,34.63
2018-07-20T12:10:13.412Z,34.54
2018-07-20T12:12:41.114Z,34.50
2018-07-20T12:15:08.800Z,34.52
2018-07-20T12:17:36.699Z,34.56
2018-07-20T12:20:04.349Z,34.59
2018-07-20T12:22:32.212Z,34.57
2018-07-20T12:25:00.123Z,34.57
2018-07-20T12:27:27.702Z,34.50
2018-07-20T12:29:55.668Z,34.42
2018-07-20T12:32:23.558Z,34.37
2018-07-20T12:34:51.158Z,34.39
2018-07-20T12:37:19.010Z,34.40
2018-07-20T12:39:46.832Z,34.39
2018-07-20T12:42:14.429Z,34.37
2018-07-20T12:44:42.214Z,34.39
2018-07-20T12:47:10.041Z,34.39
2018-07-20T12:49:37.629Z,34.35
2018-07-20T12:52:05.355Z,34.29
2018-07-20T12:54:33.234Z,34.25
2018-07-20T12:57:00.751Z,34.30
2018-07-20T12:59:28.812Z,34.38
2018-07-20T13:01:57.021Z,34.44
2018-07-20T13:04:24.666Z,34.45
2018-07-20T13:06:53.170Z,34.45
2018-07-20T13:09:20.767Z,34.44
2018-07-20T13:11:48.998Z,34.44
2018-07-20T13:14:17.715Z,34.46
2018-07-20T13:16:45.277Z,34.45
2018-07-20T13:19:12.901Z,34.41
2018-07-20T13:21:40.142Z,34.31
2018-07-20T13:24:07.431Z,34.25
2018-07-20T13:26:34.440Z,34.23
2018-07-20T13:29:01.573Z,34.17
2018-07-20T13:31:28.548Z,34.08
2018-07-20T13:33:55.640Z,33.97
2018-07-20T13:36:22.949Z,33.87
2018-07-20T13:38:50.128Z,33.79
2018-07-20T13:41:17.091Z,33.71
2018-07-20T13:43:44.440Z,33.62
2018-07-20T13:46:11.333Z,33.54
2018-07-20T13:48:38.305Z,33.43
2018-07-20T13:51:05.782Z,33.39
2018-07-20T13:53:32.734Z,33.32
2018-07-20T13:55:59.657Z,33.21
2018-07-20T13:58:26.938Z,33.12
2018-07-20T14:00:53.931Z,33.08
2018-07-20T14:03:20.906Z,33.06
2018-07-20T14:05:48.498Z,33.03
2018-07-20T14:08:15.503Z,32.95
2018-07-20T14:10:42.422Z,32.88
2018-07-20T14:13:09.591Z,32.81
2018-07-20T14:15:36.613Z,32.72
2018-07-20T14:18:03.671Z,32.59
2018-07-20T14:20:30.840Z,32.48
2018-07-20T14:22:57.877Z,32.37
2018-07-20T14:25:25.067Z,32.27
2018-07-20T14:27:52.164Z,32.15
2018-07-20T14:30:19.167Z,32.02
2018-07-20T14:32:46.110Z,31.92
2018-07-20T14:35:13.395Z,31.81
2018-07-20T14:37:40.412Z,31.70
2018-07-20T14:40:07.947Z,31.62
2018-07-20T14:42:35.319Z,31.56
2018-07-20T14:45:03.404Z,31.50
2018-07-20T14:47:30.364Z,31.45
2018-07-20T14:49:57.774Z,31.38
2018-07-20T14:52:24.728Z,31.30
2018-07-20T14:54:51.730Z,31.24
2018-07-20T14:57:19.068Z,31.09
2018-07-20T14:59:46.055Z,31.11
2018-07-20T15:02:12.964Z,31.05
2018-07-20T15:04:40.491Z,30.93
2018-07-20T15:07:07.443Z,30.93
2018-07-20T15:09:34.434Z,30.88
2018-07-20T15:12:01.719Z,30.82
2018-07-20T15:14:28.701Z,30.76
2018-07-20T15:16:55.806Z,30.69
2018-07-20T15:19:23.291Z,30.63
2018-07-20T15:21:50.302Z,30.56
2018-07-20T15:24:17.270Z,30.51
2018-07-20T15:26:44.690Z,30.45
2018-07-20T15:29:11.611Z,30.40
2018-07-20T15:31:38.580Z,30.35
2018-07-20T15:34:06.369Z,30.29
2018-07-20T15:36:33.962Z,30.24
2018-07-20T15:39:01.005Z,30.20
2018-07-20T15:41:28.314Z,30.15
2018-07-20T15:43:55.331Z,30.09
2018-07-20T15:46:22.430Z,30.04
2018-07-20T15:48:49.828Z,30.01
2018-07-20T15:51:16.861Z,29.98
2018-07-20T15:53:43.847Z,29.95
2018-07-20T15:56:11.128Z,29.93
2018-07-20T15:58:38.150Z,29.90
2018-07-20T16:01:05.096Z,29.88
2018-07-20T16:03:32.360Z,29.86
2018-07-20T16:05:59.381Z,29.85
2018-07-20T16:08:26.348Z,29.84
2018-07-20T16:10:53.640Z,29.84
2018-07-20T16:13:20.605Z,29.74
2018-07-20T16:15:47.530Z,29.81
2018-07-20T16:18:14.845Z,29.80
2018-07-20T16:20:41.801Z,29.81
2018-07-20T16:23:08.774Z,29.80
2018-07-20T16:25:36.115Z,29.78
2018-07-20T16:28:03.258Z,29.78
2018-07-20T16:30:30.293Z,29.76
2018-07-20T16:32:57.767Z,29.75
2018-07-20T16:35:24.745Z,29.73
2018-07-20T16:37:51.704Z,29.69
2018-07-20T16:40:18.878Z,29.67
2018-07-20T16:42:45.803Z,29.66
2018-07-20T16:45:12.715Z,29.64
2018-07-20T16:47:40.186Z,29.62
2018-07-20T16:50:07.202Z,29.52
2018-07-20T16:52:34.137Z,29.58
2018-07-20T16:55:01.602Z,29.56
2018-07-20T16:57:28.564Z,29.54
2018-07-20T16:59:55.507Z,29.49
2018-07-20T17:02:22.701Z,29.47
2018-07-20T17:04:49.679Z,29.44
2018-07-20T17:07:16.658Z,29.42
2018-07-20T17:09:44.408Z,29.40
2018-07-20T17:12:11.376Z,29.38
2018-07-20T17:14:38.357Z,29.37
2018-07-20T17:17:05.782Z,29.33
2018-07-20T17:19:32.714Z,29.32
2018-07-20T17:21:59.709Z,29.29
2018-07-20T17:24:26.901Z,29.27
2018-07-20T17:26:53.885Z,29.21
2018-07-20T17:29:21.347Z,29.19
2018-07-20T17:31:48.767Z,29.17
2018-07-20T17:34:15.742Z,29.13
2018-07-20T17:36:42.810Z,29.09
2018-07-20T17:39:11.601Z,29.07
2018-07-20T17:41:38.604Z,29.04
2018-07-20T17:44:05.775Z,29.01
2018-07-20T17:46:33.180Z,28.98
2018-07-20T17:49:00.172Z,28.95
2018-07-20T17:51:27.184Z,28.93
2018-07-20T17:53:54.461Z,28.90
2018-07-20T17:56:21.509Z,28.78
2018-07-20T17:58:48.473Z,28.80
2018-07-20T18:01:16.117Z,28.76
2018-07-20T18:03:43.058Z,28.72
2018-07-20T18:06:10.039Z,28.68
2018-07-20T18:08:37.340Z,28.63
2018-07-20T18:11:05.143Z,28.59
2018-07-20T18:13:32.109Z,28.56
2018-07-20T18:15:59.271Z,28.52
2018-07-20T18:18:26.280Z,28.49
2018-07-20T18:20:53.245Z,28.46
2018-07-20T18:23:20.761Z,28.43
2018-07-20T18:25:47.790Z,28.41
2018-07-20T18:28:14.726Z,28.37
2018-07-20T18:30:42.128Z,28.33
2018-07-20T18:33:09.157Z,28.29
2018-07-20T18:35:36.120Z,28.26
2018-07-20T18:38:03.520Z,28.22
2018-07-20T18:40:30.494Z,28.18
2018-07-20T18:42:57.434Z,28.12
2018-07-20T18:45:24.921Z,28.07
2018-07-20T18:47:51.891Z,28.02
2018-07-20T18:50:18.859Z,27.98
2018-07-20T18:52:46.214Z,27.93
2018-07-20T18:55:13.179Z,27.90
2018-07-20T18:57:40.133Z,27.85
2018-07-20T19:00:07.499Z,27.79
2018-07-20T19:02:34.421Z,27.75
2018-07-20T19:05:01.416Z,27.69
2018-07-20T19:07:28.723Z,27.64
2018-07-20T19:09:55.747Z,27.58
2018-07-20T19:12:22.717Z,27.51
2018-07-20T19:14:50.340Z,27.44
2018-07-20T19:17:17.304Z,27.38
2018-07-20T19:19:44.257Z,27.33
2018-07-20T19:22:11.556Z,27.26
2018-07-20T19:24:38.513Z,27.20
2018-07-20T19:27:05.842Z,27.14
2018-07-20T19:29:33.300Z,27.08
2018-07-20T19:32:00.620Z,27.02
2018-07-20T19:34:27.574Z,26.97
2018-07-20T19:36:54.776Z,26.91
2018-07-20T19:39:21.730Z,26.85
2018-07-20T19:41:48.677Z,26.81
2018-07-20T19:44:16.177Z,26.75
2018-07-20T19:46:43.135Z,26.61
2018-07-20T19:49:10.131Z,26.62
2018-07-20T19:51:37.350Z,26.50
2018-07-20T19:54:04.505Z,26.52
2018-07-20T19:56:31.494Z,26.48
2018-07-20T19:58:58.909Z,26.43
2018-07-20T20:01:25.878Z,26.40
2018-07-20T20:03:52.824Z,26.35
2018-07-20T20:06:20.188Z,26.31
2018-07-20T20:08:47.154Z,26.26
2018-07-20T20:11:14.140Z,26.23
2018-07-20T20:13:41.477Z,26.18
2018-07-20T20:16:08.453Z,26.14
2018-07-20T20:18:35.489Z,26.09
2018-07-20T20:21:02.723Z,26.06
2018-07-20T20:23:29.692Z,26.01
2018-07-20T20:25:56.683Z,25.95
2018-07-20T20:28:23.915Z,25.90
2018-07-20T20:30:50.899Z,25.85
2018-07-20T20:33:17.985Z,25.79
2018-07-20T20:35:45.398Z,25.75
2018-07-20T20:38:12.352Z,25.71
2018-07-20T20:40:39.337Z,25.65
2018-07-20T20:43:06.643Z,25.59
2018-07-20T20:45:33.624Z,25.54
2018-07-20T20:48:00.550Z,25.50
2018-07-20T20:50:27.900Z,25.46
2018-07-20T20:52:54.862Z,25.39
2018-07-20T20:55:21.788Z,25.33
2018-07-20T20:57:49.079Z,25.35
2018-07-20T21:00:16.118Z,25.26
2018-07-20T21:02:43.111Z,25.21
2018-07-20T21:05:10.403Z,25.16
2018-07-20T21:07:37.415Z,25.10
2018-07-20T21:10:04.463Z,25.05
2018-07-20T21:12:31.976Z,24.99
2018-07-20T21:14:58.963Z,24.93
2018-07-20T21:17:25.911Z,24.87
2018-07-20T21:19:53.510Z,24.81
2018-07-20T21:22:20.537Z,24.74
2018-07-20T21:24:47.548Z,24.71
2018-07-20T21:27:14.997Z,24.65
2018-07-20T21:29:42.010Z,24.61
2018-07-20T21:32:08.998Z,24.54
2018-07-20T21:34:36.801Z,24.50
2018-07-20T21:37:03.853Z,24.46
2018-07-20T21:39:30.850Z,24.40
2018-07-20T21:41:58.324Z,24.37
2018-07-20T21:44:25.267Z,24.32
2018-07-20T21:46:52.263Z,24.27
2018-07-20T21:49:19.590Z,24.23
2018-07-20T21:51:47.137Z,24.18
2018-07-20T21:54:14.118Z,24.13
2018-07-20T21:56:41.713Z,24.08
2018-07-20T21:59:08.702Z,24.02
2018-07-20T22:01:35.761Z,23.98
2018-07-20T22:04:03.042Z,23.93
2018-07-20T22:06:30.060Z,23.90
2018-07-20T22:08:57.002Z,23.86
2018-07-20T22:11:24.605Z,23.81
2018-07-20T22:13:51.562Z,23.77
2018-07-20T22:16:18.557Z,23.72
2018-07-20T22:18:45.950Z,23.67
2018-07-20T22:21:12.985Z,23.64
2018-07-20T22:23:40.056Z,23.60
2018-07-20T22:26:07.293Z,23.56
2018-07-20T22:28:34.312Z,23.53
2018-07-20T22:31:01.265Z,23.48
2018-07-20T22:33:28.735Z,23.43
2018-07-20T22:35:55.897Z,23.41
2018-07-20T22:38:22.884Z,23.36
2018-07-20T22:40:50.179Z,23.32
2018-07-20T22:43:17.165Z,23.28
2018-07-20T22:45:44.106Z,23.23
2018-07-20T22:48:11.576Z,23.19
2018-07-20T22:50:38.560Z,23.15
2018-07-20T22:53:05.546Z,23.12
2018-07-20T22:55:33.033Z,23.08
2018-07-20T22:58:00.092Z,23.04
2018-07-20T23:00:27.097Z,23.02
2018-07-20T23:02:54.427Z,22.98
2018-07-20T23:05:21.400Z,22.96
2018-07-20T23:07:48.364Z,22.91
2018-07-20T23:10:15.899Z,22.89
2018-07-20T23:12:42.983Z,22.84
2018-07-20T23:15:09.987Z,22.82
2018-07-20T23:17:37.401Z,22.78
2018-07-20T23:20:04.336Z,22.67
2018-07-20T23:22:31.355Z,22.70
2018-07-20T23:24:58.860Z,22.67
2018-07-20T23:27:25.901Z,22.65
2018-07-20T23:29:52.880Z,22.62
2018-07-20T23:32:20.382Z,22.60
2018-07-20T23:34:47.307Z,22.56
2018-07-20T23:37:14.494Z,22.53
2018-07-20T23:39:41.891Z,22.51
2018-07-20T23:42:08.855Z,22.48
2018-07-20T23:44:35.857Z,22.45
2018-07-20T23:47:03.346Z,22.40
2018-07-20T23:49:30.314Z,22.38
2018-07-20T23:51:57.319Z,22.35
2018-07-20T23:54:24.605Z,22.33
2018-07-20T23:56:51.572Z,22.32
2018-07-20T23:59:18.594Z,22.28
